Time,TemperatureF,DewpointF,PressureIn,WindDirection,WindDirectionDegrees,WindSpeedMPH,WindSpeedGustMPH,Humidity,HourlyPrecipIn,Conditions,Clouds,dailyrainin,SoftwareType,DateUTC
2013-02-25 00:21:00,34.0,31.0,29.87,NNW,330,13.0,16.0,89,-99.99,,,-99.99,,2013-02-25 05:21:00,
2013-02-25 00:31:00,34.0,31.0,29.87,NNW,330,13.0,16.0,89,-99.99,,,-99.99,,2013-02-25 05:31:00,
2013-02-25 00:41:00,34.0,31.0,29.88,NW,320,11.0,14.0,89,-99.99,,,-99.99,,2013-02-25 05:41:00,
2013-02-25 00:52:00,33.0,31.0,29.88,NW,320,13.0,15.0,89,-99.99,,,-99.99,,2013-02-25 05:52:00,
2013-02-25 01:02:00,33.0,31.0,29.88,NW,320,13.0,15.0,89,-99.99,,,-99.99,,2013-02-25 06:02:00,
2013-02-25 01:11:00,33.0,31.0,29.88,NW,320,13.0,15.0,89,-99.99,,,-99.99,,2013-02-25 06:11:00,
2013-02-25 01:21:00,34.0,30.0,29.89,NNW,330,13.0,16.0,85,-99.99,,,-99.99,,2013-02-25 06:21:00,
2013-02-25 01:31:00,34.0,30.0,29.89,NNW,330,13.0,16.0,85,-99.99,,,-99.99,,2013-02-25 06:31:00,
2013-02-25 01:41:00,35.0,29.0,29.89,NNW,330,14.0,18.0,81,-99.99,,,-99.99,,2013-02-25 06:41:00,
2013-02-25 01:51:00,35.0,29.0,29.89,NNW,330,15.0,18.0,81,-99.99,,,-99.99,,2013-02-25 06:51:00,
2013-02-25 02:01:00,35.0,29.0,29.89,NNW,330,15.0,18.0,81,-99.99,,,-99.99,,2013-02-25 07:01:00,
2013-02-25 02:11:00,35.0,29.0,29.89,NNW,330,15.0,18.0,81,-99.99,,,-99.99,,2013-02-25 07:11:00,
2013-02-25 02:21:00,34.0,29.0,29.90,NW,320,13.0,15.0,81,-99.99,,,-99.99,,2013-02-25 07:21:00,
2013-02-25 02:31:00,34.0,29.0,29.90,NW,320,13.0,15.0,81,-99.99,,,-99.99,,2013-02-25 07:31:00,
2013-02-25 02:41:00,34.0,29.0,29.90,NNW,330,14.0,16.0,82,-99.99,,,-99.99,,2013-02-25 07:41:00,
2013-02-25 02:51:00,34.0,29.0,29.91,NW,310,13.0,16.0,80,-99.99,,,-99.99,,2013-02-25 07:51:00,
2013-02-25 03:01:00,34.0,29.0,29.91,NW,310,13.0,16.0,80,-99.99,,,-99.99,,2013-02-25 08:01:00,
2013-02-25 03:11:00,34.0,29.0,29.91,NW,310,13.0,16.0,81,-99.99,,,-99.99,,2013-02-25 08:11:00,
2013-02-25 03:21:00,34.0,29.0,29.92,WNW,300,11.0,14.0,82,-99.99,,,-99.99,,2013-02-25 08:21:00,
2013-02-25 03:31:00,34.0,29.0,29.92,WNW,300,11.0,14.0,82,-99.99,,,-99.99,,2013-02-25 08:31:00,
2013-02-25 03:41:00,34.0,29.0,29.92,WNW,300,13.0,16.0,82,-99.99,,,-99.99,,2013-02-25 08:41:00,
2013-02-25 03:51:00,33.0,29.0,29.93,NW,310,10.0,13.0,82,-99.99,,,-99.99,,2013-02-25 08:51:00,
2013-02-25 04:01:00,33.0,29.0,29.93,NW,310,10.0,13.0,82,-99.99,,,-99.99,,2013-02-25 09:01:00,
2013-02-25 04:12:00,33.0,29.0,29.93,NW,310,10.0,13.0,82,-99.99,,,-99.99,,2013-02-25 09:12:00,
2013-02-25 04:21:00,33.0,28.0,29.94,NW,310,9.0,11.0,82,-99.99,,,-99.99,,2013-02-25 09:21:00,
2013-02-25 04:31:00,33.0,28.0,29.94,NW,310,9.0,11.0,82,-99.99,,,-99.99,,2013-02-25 09:31:00,
2013-02-25 04:41:00,33.0,29.0,29.94,NW,310,8.0,11.0,83,-99.99,,,-99.99,,2013-02-25 09:41:00,
2013-02-25 04:51:00,33.0,28.0,29.95,NW,320,9.0,11.0,83,-99.99,,,-99.99,,2013-02-25 09:51:00,
2013-02-25 05:01:00,33.0,28.0,29.95,NW,320,9.0,11.0,83,-99.99,,,-99.99,,2013-02-25 10:01:00,
2013-02-25 05:11:00,33.0,28.0,29.95,NW,320,9.0,11.0,83,-99.99,,,-99.99,,2013-02-25 10:11:00,
2013-02-25 05:21:00,32.0,28.0,29.97,West,280,8.0,9.0,85,-99.99,,,-99.99,,2013-02-25 10:21:00,
2013-02-25 05:31:00,32.0,28.0,29.97,West,280,8.0,9.0,85,-99.99,,,-99.99,,2013-02-25 10:31:00,
2013-02-25 05:41:00,32.0,28.0,29.98,West,280,8.0,10.0,83,-99.99,,,-99.99,,2013-02-25 10:41:00,
2013-02-25 05:52:00,32.0,28.0,29.98,WNW,300,7.0,9.0,84,-99.99,,,-99.99,,2013-02-25 10:52:00,
2013-02-25 06:01:00,32.0,28.0,29.98,WNW,300,7.0,9.0,84,-99.99,,,-99.99,,2013-02-25 11:01:00,
2013-02-25 06:11:00,32.0,28.0,29.98,WNW,300,7.0,9.0,84,-99.99,,,-99.99,,2013-02-25 11:11:00,
2013-02-25 06:21:00,32.0,28.0,29.99,WNW,300,7.0,8.0,84,-99.99,,,-99.99,,2013-02-25 11:21:00,
2013-02-25 06:31:00,32.0,28.0,29.99,WNW,300,7.0,8.0,84,-99.99,,,-99.99,,2013-02-25 11:31:00,
2013-02-25 06:41:00,32.0,27.0,30.00,WNW,290,5.0,7.0,83,-99.99,,,-99.99,,2013-02-25 11:41:00,
2013-02-25 06:52:00,32.0,27.0,30.01,West,270,6.0,7.0,83,-99.99,,,-99.99,,2013-02-25 11:52:00,
2013-02-25 07:01:00,32.0,27.0,30.01,West,270,6.0,7.0,83,-99.99,,,-99.99,,2013-02-25 12:01:00,
2013-02-25 07:11:00,32.0,27.0,30.01,WNW,290,5.0,6.0,82,-99.99,,,-99.99,,2013-02-25 12:11:00,
2013-02-25 07:21:00,32.0,27.0,30.02,WNW,300,5.0,6.0,82,-99.99,,,-99.99,,2013-02-25 12:21:00,
2013-02-25 07:31:00,32.0,27.0,30.02,WNW,300,5.0,6.0,82,-99.99,,,-99.99,,2013-02-25 12:31:00,
2013-02-25 07:41:00,32.0,27.0,30.02,WNW,290,6.0,7.0,79,-99.99,,,-99.99,,2013-02-25 12:41:00,
2013-02-25 07:52:00,33.0,26.0,30.03,WNW,290,6.0,7.0,77,-99.99,,,-99.99,,2013-02-25 12:52:00,
2013-02-25 08:01:00,33.0,26.0,30.03,WNW,290,6.0,7.0,77,-99.99,,,-99.99,,2013-02-25 13:01:00,
2013-02-25 08:11:00,33.0,26.0,30.03,WNW,290,6.0,7.0,77,-99.99,,,-99.99,,2013-02-25 13:11:00,
2013-02-25 08:21:00,34.0,26.0,30.04,WNW,290,5.0,6.0,71,-99.99,,,-99.99,,2013-02-25 13:21:00,
2013-02-25 08:31:00,34.0,26.0,30.04,WNW,290,5.0,6.0,71,-99.99,,,-99.99,,2013-02-25 13:31:00,
2013-02-25 08:41:00,35.0,26.0,30.04,WNW,290,3.0,5.0,69,-99.99,,,-99.99,,2013-02-25 13:41:00,
2013-02-25 08:51:00,37.0,26.0,30.05,NW,310,1.0,2.0,65,-99.99,,,-99.99,,2013-02-25 13:51:00,
2013-02-25 09:02:00,37.0,26.0,30.05,NW,310,1.0,2.0,65,-99.99,,,-99.99,,2013-02-25 14:02:00,
2013-02-25 09:11:00,37.0,26.0,30.05,NW,310,1.0,2.0,65,-99.99,,,-99.99,,2013-02-25 14:11:00,
2013-02-25 09:21:00,39.0,26.0,30.06,North,360,7.0,9.0,59,-99.99,,,-99.99,,2013-02-25 14:21:00,
2013-02-25 09:31:00,39.0,26.0,30.06,North,360,7.0,9.0,59,-99.99,,,-99.99,,2013-02-25 14:31:00,
2013-02-25 09:41:00,39.0,26.0,30.06,North,360,13.0,15.0,59,-99.99,,,-99.99,,2013-02-25 14:41:00,
2013-02-25 09:52:00,39.0,26.0,30.06,North,350,13.0,15.0,57,-99.99,,,-99.99,,2013-02-25 14:52:00,
2013-02-25 10:02:00,39.0,26.0,30.06,North,350,13.0,15.0,57,-99.99,,,-99.99,,2013-02-25 15:02:00,
2013-02-25 10:11:00,39.0,26.0,30.06,North,350,13.0,15.0,57,-99.99,,,-99.99,,2013-02-25 15:11:00,
2013-02-25 10:21:00,39.0,27.0,30.06,NNE,20,10.0,14.0,60,-99.99,,,-99.99,,2013-02-25 15:21:00,
2013-02-25 10:32:00,39.0,27.0,30.06,NNE,20,10.0,14.0,60,-99.99,,,-99.99,,2013-02-25 15:32:00,
2013-02-25 10:41:00,41.0,27.0,30.06,North,350,9.0,11.0,57,-99.99,,,-99.99,,2013-02-25 15:41:00,
2013-02-25 10:51:00,40.0,27.0,30.06,NNW,340,9.0,11.0,59,-99.99,,,-99.99,,2013-02-25 15:51:00,
2013-02-25 11:01:00,40.0,27.0,30.06,NNW,340,9.0,11.0,59,-99.99,,,-99.99,,2013-02-25 16:01:00,
2013-02-25 11:11:00,42.0,27.0,30.06,NNW,340,8.0,9.0,55,-99.99,,,-99.99,,2013-02-25 16:11:00,
2013-02-25 11:21:00,42.0,28.0,30.07,NNW,340,8.0,10.0,56,-99.99,,,-99.99,,2013-02-25 16:21:00,
2013-02-25 11:31:00,42.0,28.0,30.07,NNW,340,8.0,10.0,56,-99.99,,,-99.99,,2013-02-25 16:31:00,
2013-02-25 11:41:00,41.0,28.0,30.07,NNW,340,8.0,9.0,58,-99.99,,,-99.99,,2013-02-25 16:41:00,
2013-02-25 11:51:00,42.0,28.0,30.08,NNW,330,6.0,7.0,55,-99.99,,,-99.99,,2013-02-25 16:51:00,
2013-02-25 12:01:00,42.0,28.0,30.08,NNW,330,6.0,7.0,55,-99.99,,,-99.99,,2013-02-25 17:01:00,
2013-02-25 12:11:00,42.0,28.0,30.08,NNW,330,6.0,7.0,55,-99.99,,,-99.99,,2013-02-25 17:11:00,
2013-02-25 12:21:00,42.0,28.0,30.08,North,350,5.0,7.0,56,-99.99,,,-99.99,,2013-02-25 17:21:00,
2013-02-25 12:31:00,42.0,28.0,30.08,North,350,5.0,7.0,56,-99.99,,,-99.99,,2013-02-25 17:31:00,
2013-02-25 12:41:00,41.0,29.0,30.08,SW,220,7.0,9.0,61,-99.99,,,-99.99,,2013-02-25 17:41:00,
2013-02-25 12:51:00,39.0,29.0,30.08,SW,220,11.0,13.0,68,-99.99,,,-99.99,,2013-02-25 17:51:00,
2013-02-25 13:01:00,39.0,29.0,30.08,SW,220,11.0,13.0,68,-99.99,,,-99.99,,2013-02-25 18:01:00,
2013-02-25 13:11:00,38.0,29.0,30.09,SW,230,13.0,14.0,70,-99.99,,,-99.99,,2013-02-25 18:11:00,
2013-02-25 13:21:00,38.0,30.0,30.09,WSW,250,10.0,11.0,70,-99.99,,,-99.99,,2013-02-25 18:21:00,
2013-02-25 13:32:00,38.0,29.0,30.08,WSW,250,10.0,11.0,70,-99.99,,,-99.99,,2013-02-25 18:32:00,
2013-02-25 13:41:00,38.0,29.0,30.08,WSW,250,10.0,11.0,70,-99.99,,,-99.99,,2013-02-25 18:41:00,
2013-02-25 13:51:00,38.0,30.0,30.09,West,260,10.0,11.0,72,-99.99,,,-99.99,,2013-02-25 18:51:00,
2013-02-25 14:01:00,38.0,30.0,30.09,West,260,10.0,11.0,72,-99.99,,,-99.99,,2013-02-25 19:01:00,
2013-02-25 14:11:00,38.0,30.0,30.09,West,260,10.0,11.0,72,-99.99,,,-99.99,,2013-02-25 19:11:00,
2013-02-25 14:21:00,38.0,30.0,30.10,WSW,250,10.0,13.0,70,-99.99,,,-99.99,,2013-02-25 19:21:00,
2013-02-25 14:31:00,38.0,30.0,30.10,WSW,250,10.0,13.0,70,-99.99,,,-99.99,,2013-02-25 19:31:00,
2013-02-25 14:41:00,38.0,31.0,30.09,WSW,250,10.0,11.0,73,-99.99,,,-99.99,,2013-02-25 19:41:00,
2013-02-25 14:52:00,38.0,31.0,30.09,WSW,250,9.0,11.0,74,-99.99,,,-99.99,,2013-02-25 19:52:00,
2013-02-25 15:01:00,38.0,31.0,30.09,WSW,250,9.0,11.0,74,-99.99,,,-99.99,,2013-02-25 20:01:00,
2013-02-25 15:11:00,38.0,31.0,30.09,WSW,250,9.0,11.0,74,-99.99,,,-99.99,,2013-02-25 20:11:00,
2013-02-25 15:21:00,38.0,31.0,30.11,WSW,250,10.0,11.0,74,-99.99,,,-99.99,,2013-02-25 20:21:00,
2013-02-25 15:31:00,38.0,31.0,30.11,WSW,250,10.0,11.0,74,-99.99,,,-99.99,,2013-02-25 20:31:00,
2013-02-25 15:41:00,38.0,31.0,30.11,West,260,10.0,10.0,73,-99.99,,,-99.99,,2013-02-25 20:41:00,
2013-02-25 15:52:00,38.0,31.0,30.11,WSW,250,9.0,10.0,74,-99.99,,,-99.99,,2013-02-25 20:52:00,
2013-02-25 16:01:00,38.0,31.0,30.11,WSW,250,9.0,10.0,74,-99.99,,,-99.99,,2013-02-25 21:01:00,
2013-02-25 16:11:00,38.0,31.0,30.11,WSW,250,9.0,10.0,74,-99.99,,,-99.99,,2013-02-25 21:11:00,
2013-02-25 16:21:00,39.0,32.0,30.13,WSW,250,7.0,8.0,76,-99.99,,,-99.99,,2013-02-25 21:21:00,
2013-02-25 16:31:00,39.0,32.0,30.13,WSW,250,7.0,8.0,76,-99.99,,,-99.99,,2013-02-25 21:31:00,
2013-02-25 16:41:00,39.0,31.0,30.13,WSW,240,5.0,6.0,74,-99.99,,,-99.99,,2013-02-25 21:41:00,
2013-02-25 16:51:00,39.0,31.0,30.13,West,270,3.0,6.0,72,-99.99,,,-99.99,,2013-02-25 21:51:00,
2013-02-25 17:01:00,39.0,31.0,30.13,West,270,3.0,6.0,72,-99.99,,,-99.99,,2013-02-25 22:01:00,
2013-02-25 17:11:00,39.0,31.0,30.13,West,270,3.0,6.0,72,-99.99,,,-99.99,,2013-02-25 22:11:00,
2013-02-25 17:21:00,41.0,30.0,30.14,North,0,0.0,1.0,65,-99.99,,,-99.99,,2013-02-25 22:21:00,
2013-02-25 17:31:00,41.0,30.0,30.14,North,0,0.0,1.0,64,-99.99,,,-99.99,,2013-02-25 22:31:00,
2013-02-25 17:41:00,41.0,30.0,30.14,North,0,0.0,1.0,64,-99.99,,,-99.99,,2013-02-25 22:41:00,
2013-02-25 17:51:00,39.0,31.0,30.14,SW,220,3.0,7.0,71,-99.99,,,-99.99,,2013-02-25 22:51:00,
2013-02-25 18:01:00,39.0,31.0,30.14,SW,220,3.0,7.0,71,-99.99,,,-99.99,,2013-02-25 23:01:00,
2013-02-25 18:11:00,39.0,31.0,30.14,SW,220,2.0,3.0,72,-99.99,,,-99.99,,2013-02-25 23:11:00,
2013-02-25 18:21:00,39.0,29.0,30.14,North,0,0.0,1.0,67,-99.99,,,-99.99,,2013-02-25 23:21:00,
2013-02-25 18:31:00,39.0,29.0,30.14,North,0,0.0,1.0,67,-99.99,,,-99.99,,2013-02-25 23:31:00,
2013-02-25 18:41:00,39.0,30.0,30.15,North,0,0.0,1.0,69,-99.99,,,-99.99,,2013-02-25 23:41:00,
2013-02-25 18:51:00,39.0,30.0,30.15,North,0,0.0,1.0,69,-99.99,,,-99.99,,2013-02-25 23:51:00,
2013-02-25 19:01:00,38.0,30.0,30.16,SW,220,1.0,2.0,71,-99.99,,,-99.99,,2013-02-26 00:01:00,
2013-02-25 19:11:00,38.0,30.0,30.16,SW,220,1.0,2.0,71,-99.99,,,-99.99,,2013-02-26 00:11:00,
2013-02-25 19:21:00,38.0,32.0,30.17,West,260,5.0,5.0,76,-99.99,,,-99.99,,2013-02-26 00:21:00,
2013-02-25 19:31:00,38.0,32.0,30.17,West,260,5.0,5.0,76,-99.99,,,-99.99,,2013-02-26 00:31:00,
2013-02-25 19:41:00,38.0,32.0,30.17,West,260,5.0,5.0,76,-99.99,,,-99.99,,2013-02-26 00:41:00,